createdAt,value
2019-05-07T00:02:14.380Z,6.20
2019-05-07T00:04:42.979Z,6.30
2019-05-07T00:07:13.024Z,6.30
2019-05-07T00:09:43.090Z,6.30
2019-05-07T00:12:12.578Z,6.30
2019-05-07T00:14:43.003Z,6.30
2019-05-07T00:17:13.093Z,6.20
2019-05-07T00:19:43.196Z,6.20
2019-05-07T00:22:12.565Z,6.20
2019-05-07T00:24:42.715Z,6.10
2019-05-07T00:27:13.112Z,6.20
2019-05-07T00:29:42.867Z,6.20
2019-05-07T00:32:12.236Z,6.20
2019-05-07T00:34:42.587Z,6.20
2019-05-07T00:37:13.164Z,6.20
2019-05-07T00:39:46.423Z,6.10
2019-05-07T00:42:21.466Z,6.00
2019-05-07T00:44:57.292Z,5.90
2019-05-07T00:47:25.775Z,5.80
2019-05-07T00:49:55.785Z,5.80
2019-05-07T00:52:24.434Z,5.80
2019-05-07T00:54:53.254Z,5.80
2019-05-07T00:57:22.927Z,5.90
2019-05-07T00:59:52.511Z,5.90
2019-05-07T01:02:22.894Z,5.90
2019-05-07T01:04:53.210Z,6.00
2019-05-07T01:07:22.949Z,6.00
2019-05-07T01:09:52.411Z,6.00
2019-05-07T01:12:22.175Z,6.00
2019-05-07T01:14:52.797Z,6.00
2019-05-07T01:17:22.670Z,6.00
2019-05-07T01:19:53.181Z,6.00
2019-05-07T01:22:22.402Z,6.10
2019-05-07T01:24:52.547Z,6.00
2019-05-07T01:27:22.699Z,6.10
2019-05-07T01:29:52.778Z,6.00
2019-05-07T01:32:35.459Z,6.00
2019-05-07T01:35:13.271Z,6.00
2019-05-07T01:37:42.232Z,6.00
2019-05-07T01:40:12.228Z,6.00
2019-05-07T01:42:42.390Z,6.00
2019-05-07T01:45:12.964Z,6.00
2019-05-07T01:47:42.507Z,6.00
2019-05-07T01:50:13.223Z,6.10
2019-05-07T01:52:42.702Z,6.10
2019-05-07T01:55:12.944Z,6.10
2019-05-07T01:57:42.188Z,6.10
2019-05-07T02:00:13.053Z,6.20
2019-05-07T02:02:43.407Z,6.10
2019-05-07T02:05:16.690Z,6.10
2019-05-07T02:07:46.784Z,6.20
2019-05-07T02:10:32.819Z,6.10
2019-05-07T02:13:02.250Z,6.20
2019-05-07T02:15:32.227Z,6.10
2019-05-07T02:18:01.996Z,6.10
2019-05-07T02:20:32.119Z,6.10
2019-05-07T02:23:02.764Z,6.10
2019-05-07T02:25:32.742Z,6.10
2019-05-07T02:28:02.212Z,6.10
2019-05-07T02:30:34.970Z,6.00
2019-05-07T02:33:03.692Z,6.00
2019-05-07T02:35:33.260Z,6.00
2019-05-07T02:38:13.975Z,5.90
2019-05-07T02:40:44.206Z,6.00
2019-05-07T02:43:14.023Z,5.90
2019-05-07T02:45:53.570Z,5.80
2019-05-07T02:48:24.003Z,5.80
2019-05-07T02:50:54.168Z,5.80
2019-05-07T02:53:24.296Z,5.70
2019-05-07T02:55:57.303Z,5.70
2019-05-07T02:58:25.852Z,5.70
2019-05-07T03:00:54.520Z,5.80
2019-05-07T03:03:24.660Z,5.80
2019-05-07T03:05:53.893Z,5.80
2019-05-07T03:08:26.957Z,5.80
2019-05-07T03:10:52.941Z,5.90
2019-05-07T03:13:23.617Z,5.90
2019-05-07T03:15:54.063Z,5.90
2019-05-07T03:18:23.410Z,5.90
2019-05-07T03:20:56.820Z,5.90
2019-05-07T03:23:30.176Z,5.90
2019-05-07T03:26:00.408Z,5.90
2019-05-07T03:28:29.333Z,5.80
2019-05-07T03:31:05.807Z,5.70
2019-05-07T03:33:36.757Z,5.70
2019-05-07T03:36:07.922Z,5.60
2019-05-07T03:38:36.632Z,5.60
2019-05-07T03:41:05.219Z,5.60
2019-05-07T03:43:33.764Z,5.50
2019-05-07T03:46:06.919Z,5.50
2019-05-07T03:48:37.462Z,5.50
2019-05-07T03:51:06.036Z,5.50
2019-05-07T03:53:34.654Z,5.50
2019-05-07T03:56:04.190Z,5.60
2019-05-07T03:58:33.973Z,5.60
2019-05-07T04:01:04.362Z,5.60
2019-05-07T04:03:34.380Z,5.60
2019-05-07T04:06:03.997Z,5.60
2019-05-07T04:08:33.442Z,5.70
2019-05-07T04:11:03.547Z,5.70
2019-05-07T04:13:33.493Z,5.80
2019-05-07T04:16:04.080Z,5.80
2019-05-07T04:18:33.368Z,5.80
2019-05-07T04:21:03.616Z,5.80
2019-05-07T04:23:34.212Z,5.70
2019-05-07T04:26:04.653Z,5.70
2019-05-07T04:28:49.923Z,5.60
2019-05-07T04:31:18.472Z,5.50
2019-05-07T04:33:47.296Z,5.50
2019-05-07T04:36:17.416Z,5.60
2019-05-07T04:38:46.215Z,5.60
2019-05-07T04:41:14.784Z,5.70
2019-05-07T04:43:43.700Z,5.80
2019-05-07T04:46:14.498Z,5.80
2019-05-07T04:48:43.925Z,5.80
2019-05-07T04:51:14.895Z,5.80
2019-05-07T04:53:43.343Z,5.80
2019-05-07T04:56:14.083Z,5.80
2019-05-07T04:58:43.271Z,5.90
2019-05-07T05:01:14.161Z,6.00
2019-05-07T05:03:43.713Z,6.00
2019-05-07T05:06:13.717Z,6.10
2019-05-07T05:08:43.542Z,6.10
2019-05-07T05:11:12.947Z,6.10
2019-05-07T05:13:44.402Z,6.20
2019-05-07T05:16:13.415Z,6.20
2019-05-07T05:18:42.038Z,6.20
2019-05-07T05:21:12.255Z,6.30
2019-05-07T05:23:45.315Z,6.40
2019-05-07T05:26:13.798Z,6.40
2019-05-07T05:28:42.255Z,6.50
2019-05-07T05:31:12.679Z,6.50
2019-05-07T05:33:41.947Z,6.50
2019-05-07T05:36:12.614Z,6.50
2019-05-07T05:38:42.418Z,6.40
2019-05-07T05:41:12.235Z,6.30
2019-05-07T05:43:42.857Z,6.20
2019-05-07T05:46:13.096Z,6.20
2019-05-07T05:48:42.507Z,6.20
2019-05-07T05:51:24.676Z,6.20
2019-05-07T05:54:04.347Z,6.30
2019-05-07T05:56:37.152Z,6.40
2019-05-07T05:59:12.098Z,6.40
2019-05-07T06:01:58.336Z,6.40
2019-05-07T06:04:32.849Z,6.40
2019-05-07T06:07:11.318Z,6.30
2019-05-07T06:09:42.246Z,6.30
2019-05-07T06:12:27.827Z,6.40
2019-05-07T06:14:57.951Z,6.40
2019-05-07T06:17:44.772Z,6.50
2019-05-07T06:20:15.932Z,6.50
2019-05-07T06:23:02.319Z,6.60
2019-05-07T06:25:33.412Z,6.60
2019-05-07T06:28:01.919Z,6.70
2019-05-07T06:30:30.651Z,6.80
2019-05-07T06:32:59.246Z,6.80
2019-05-07T06:35:27.719Z,6.90
2019-05-07T06:37:56.172Z,7.00
2019-05-07T06:40:44.795Z,7.10
2019-05-07T06:43:14.964Z,7.20
2019-05-07T06:45:45.325Z,7.30
2019-05-07T06:48:14.142Z,7.40
2019-05-07T06:50:44.339Z,7.50
2019-05-07T06:53:12.788Z,7.60
2019-05-07T06:55:42.801Z,7.60
2019-05-07T06:58:12.307Z,7.80
2019-05-07T07:00:42.659Z,7.90
2019-05-07T07:03:22.385Z,8.00
2019-05-07T07:05:52.777Z,8.20
2019-05-07T07:08:23.163Z,8.30
2019-05-07T07:11:09.632Z,8.50
2019-05-07T07:13:38.175Z,8.60
2019-05-07T07:16:06.703Z,8.80
2019-05-07T07:18:48.418Z,8.90
2019-05-07T07:21:05.568Z,9.00
2019-05-07T07:23:34.052Z,9.20
2019-05-07T07:26:03.303Z,9.30
2019-05-07T07:28:32.744Z,9.50
2019-05-07T07:31:12.987Z,9.60
2019-05-07T07:33:45.931Z,9.60
2019-05-07T07:36:14.676Z,9.90
2019-05-07T07:38:43.168Z,10.10
2019-05-07T07:41:13.575Z,10.30
2019-05-07T07:43:42.248Z,10.50
2019-05-07T07:46:13.111Z,10.70
2019-05-07T07:48:43.446Z,10.90
2019-05-07T07:51:13.594Z,11.10
2019-05-07T07:53:42.513Z,11.30
2019-05-07T07:56:23.058Z,11.40
2019-05-07T07:59:09.612Z,11.50
2019-05-07T08:01:41.986Z,11.70
2019-05-07T08:04:12.291Z,11.70
2019-05-07T08:06:41.982Z,11.70
2019-05-07T08:09:13.708Z,11.90
2019-05-07T08:11:42.697Z,11.90
2019-05-07T08:14:12.628Z,11.90
2019-05-07T08:16:42.958Z,12.00
2019-05-07T08:19:21.590Z,11.90
2019-05-07T08:21:42.276Z,12.00
2019-05-07T08:24:12.206Z,12.10
2019-05-07T08:26:42.888Z,12.10
2019-05-07T08:29:12.004Z,12.00
2019-05-07T08:31:58.743Z,11.90
2019-05-07T08:34:29.216Z,12.00
2019-05-07T08:36:58.096Z,12.20
2019-05-07T08:39:26.630Z,12.20
2019-05-07T08:41:55.193Z,12.10
2019-05-07T08:44:25.363Z,12.20
2019-05-07T08:46:55.816Z,12.50
2019-05-07T08:49:35.601Z,12.60
2019-05-07T08:52:03.050Z,12.60
2019-05-07T08:54:32.258Z,12.70
2019-05-07T08:57:01.941Z,12.70
2019-05-07T08:59:32.076Z,12.70
2019-05-07T09:02:02.994Z,12.80
2019-05-07T09:04:32.679Z,12.90
2019-05-07T09:07:02.770Z,12.70
2019-05-07T09:09:32.471Z,12.70
2019-05-07T09:12:02.950Z,12.70
2019-05-07T09:14:32.227Z,12.70
2019-05-07T09:17:02.507Z,12.90
2019-05-07T09:19:32.492Z,12.90
2019-05-07T09:22:02.128Z,13.10
2019-05-07T09:24:32.959Z,13.20
2019-05-07T09:27:05.430Z,13.00
2019-05-07T09:29:42.650Z,13.10
2019-05-07T09:32:24.868Z,13.10
2019-05-07T09:34:55.433Z,13.20
2019-05-07T09:37:25.719Z,13.30
2019-05-07T09:39:54.257Z,13.30
2019-05-07T09:42:22.754Z,13.30
2019-05-07T09:44:52.952Z,13.40
2019-05-07T09:47:22.009Z,13.50
2019-05-07T09:50:04.289Z,13.60
2019-05-07T09:52:22.859Z,13.60
2019-05-07T09:54:52.241Z,13.60
2019-05-07T09:57:28.284Z,13.70
2019-05-07T09:59:53.023Z,13.60
2019-05-07T10:02:22.687Z,13.20
2019-05-07T10:04:52.624Z,13.00
2019-05-07T10:07:22.453Z,13.00
2019-05-07T10:09:52.316Z,12.90
2019-05-07T10:12:32.995Z,12.70
2019-05-07T10:15:03.051Z,12.70
2019-05-07T10:17:35.980Z,12.60
2019-05-07T10:20:19.194Z,12.50
2019-05-07T10:22:39.551Z,12.50
2019-05-07T10:25:08.379Z,12.50
2019-05-07T10:27:38.815Z,12.70
2019-05-07T10:30:08.409Z,13.00
2019-05-07T10:32:37.074Z,13.50
2019-05-07T10:35:07.271Z,13.70
2019-05-07T10:37:36.212Z,13.80
2019-05-07T10:40:07.609Z,14.00
2019-05-07T10:42:36.475Z,14.10
2019-05-07T10:45:13.123Z,14.00
2019-05-07T10:47:43.755Z,13.90
2019-05-07T10:50:17.691Z,13.40
2019-05-07T10:52:46.379Z,13.20
2019-05-07T10:55:15.305Z,13.20
2019-05-07T10:57:44.132Z,13.10
2019-05-07T11:00:16.768Z,13.40
2019-05-07T11:02:45.292Z,13.80
2019-05-07T11:05:14.721Z,14.10
2019-05-07T11:07:43.258Z,14.40
2019-05-07T11:10:12.572Z,14.80
2019-05-07T11:12:42.417Z,14.90
2019-05-07T11:15:12.606Z,14.80
2019-05-07T11:17:43.171Z,14.80
2019-05-07T11:20:13.272Z,14.80
2019-05-07T11:22:42.891Z,14.40
2019-05-07T11:25:12.137Z,14.20
2019-05-07T11:27:42.119Z,13.90
2019-05-07T11:30:12.392Z,13.80
2019-05-07T11:32:42.967Z,13.70
2019-05-07T11:35:14.540Z,13.60
2019-05-07T11:37:44.104Z,13.40
2019-05-07T11:40:13.161Z,13.30
2019-05-07T11:42:59.732Z,13.40
2019-05-07T11:45:48.867Z,13.50
2019-05-07T11:48:18.759Z,13.50
2019-05-07T11:51:00.430Z,13.40
2019-05-07T11:53:32.826Z,13.40
2019-05-07T11:56:02.506Z,13.40
2019-05-07T11:58:32.522Z,13.50
2019-05-07T12:01:15.303Z,13.60
2019-05-07T12:03:43.791Z,13.60
2019-05-07T12:06:12.566Z,13.70
2019-05-07T12:08:48.081Z,14.00
2019-05-07T12:11:11.966Z,16.50
2019-05-07T12:13:42.762Z,18.30
2019-05-07T12:16:13.945Z,17.90
2019-05-07T12:18:43.027Z,18.40
2019-05-07T12:21:20.200Z,18.90
2019-05-07T12:23:42.203Z,18.40
2019-05-07T12:26:12.595Z,18.50
2019-05-07T12:28:41.825Z,18.10
2019-05-07T12:31:24.212Z,18.20
2019-05-07T12:33:57.192Z,18.30
2019-05-07T12:36:25.675Z,18.20
2019-05-07T12:38:54.203Z,18.00
2019-05-07T12:41:34.354Z,17.80
2019-05-07T12:44:06.031Z,17.50
2019-05-07T12:46:35.104Z,16.90
2019-05-07T12:49:03.823Z,16.50
2019-05-07T12:51:37.486Z,16.40
2019-05-07T12:54:11.989Z,16.10
2019-05-07T12:56:42.515Z,15.80
2019-05-07T12:59:12.896Z,15.80
2019-05-07T13:01:43.049Z,15.80
2019-05-07T13:04:18.990Z,15.80
2019-05-07T13:06:52.438Z,15.80
2019-05-07T13:09:21.947Z,15.80
2019-05-07T13:11:52.564Z,15.70
2019-05-07T13:14:21.900Z,15.70
2019-05-07T13:16:52.305Z,15.70
2019-05-07T13:19:22.632Z,16.00
2019-05-07T13:21:51.341Z,16.40
2019-05-07T13:24:22.636Z,16.40
2019-05-07T13:26:51.876Z,16.10
2019-05-07T13:29:22.188Z,16.00
2019-05-07T13:31:54.254Z,16.20
2019-05-07T13:34:22.950Z,16.40
2019-05-07T13:36:54.616Z,16.60
2019-05-07T13:39:28.235Z,16.70
2019-05-07T13:42:02.085Z,16.60
2019-05-07T13:44:33.107Z,16.50
2019-05-07T13:47:21.806Z,16.10
2019-05-07T13:49:53.562Z,15.90
2019-05-07T13:52:23.235Z,15.70
2019-05-07T13:54:52.795Z,15.50
2019-05-07T13:57:22.654Z,15.60
2019-05-07T13:59:53.007Z,15.70
2019-05-07T14:02:23.612Z,15.90
2019-05-07T14:04:52.746Z,16.00
2019-05-07T14:07:21.841Z,16.00
2019-05-07T14:09:52.691Z,15.80
2019-05-07T14:12:22.900Z,15.80
2019-05-07T14:14:53.019Z,15.20
2019-05-07T14:17:22.106Z,15.10
2019-05-07T14:19:52.880Z,15.10
2019-05-07T14:22:22.526Z,15.30
2019-05-07T14:24:53.068Z,15.30
2019-05-07T14:27:21.866Z,15.40
2019-05-07T14:29:52.047Z,15.30
2019-05-07T14:32:34.631Z,15.50
2019-05-07T14:35:05.612Z,15.60
2019-05-07T14:37:41.853Z,15.70
2019-05-07T14:40:12.931Z,15.90
2019-05-07T14:42:45.451Z,15.80
2019-05-07T14:45:14.798Z,15.90
2019-05-07T14:47:44.777Z,15.90
2019-05-07T14:50:13.960Z,15.80
2019-05-07T14:52:43.227Z,15.60
2019-05-07T14:55:12.994Z,15.60
2019-05-07T14:57:42.230Z,15.60
2019-05-07T15:00:12.251Z,15.60
2019-05-07T15:02:42.125Z,15.70
2019-05-07T15:05:11.998Z,15.70
2019-05-07T15:07:41.243Z,15.80
2019-05-07T15:10:10.212Z,15.80
2019-05-07T15:12:38.767Z,15.70
2019-05-07T15:15:07.939Z,15.70
2019-05-07T15:17:38.203Z,15.70
2019-05-07T15:20:07.267Z,15.60
2019-05-07T15:22:48.609Z,15.60
2019-05-07T15:25:12.041Z,15.60
2019-05-07T15:27:42.094Z,15.60
2019-05-07T15:30:11.637Z,15.60
2019-05-07T15:32:42.658Z,15.70
2019-05-07T15:35:12.569Z,15.70
2019-05-07T15:37:42.728Z,15.70
2019-05-07T15:40:11.837Z,15.70
2019-05-07T15:42:42.104Z,15.50
2019-05-07T15:45:12.585Z,15.30
2019-05-07T15:47:43.279Z,15.10
2019-05-07T15:50:12.578Z,15.00
2019-05-07T15:52:58.460Z,14.90
2019-05-07T15:55:22.641Z,14.90
2019-05-07T15:57:52.137Z,14.70
2019-05-07T16:00:28.810Z,14.70
2019-05-07T16:02:59.078Z,14.60
2019-05-07T16:05:27.607Z,14.60
2019-05-07T16:07:56.151Z,14.60
2019-05-07T16:10:24.608Z,14.60
2019-05-07T16:12:53.772Z,14.70
2019-05-07T16:15:22.628Z,14.80
2019-05-07T16:17:58.880Z,14.90
2019-05-07T16:20:27.744Z,15.00
2019-05-07T16:23:13.556Z,15.20
2019-05-07T16:25:32.815Z,15.20
2019-05-07T16:28:04.439Z,15.30
2019-05-07T16:30:32.357Z,15.20
2019-05-07T16:33:02.175Z,15.20
2019-05-07T16:35:32.030Z,15.10
2019-05-07T16:38:00.825Z,15.00
2019-05-07T16:40:29.343Z,14.90
2019-05-07T16:42:58.103Z,14.80
2019-05-07T16:45:26.568Z,14.80
2019-05-07T16:47:55.052Z,14.60
2019-05-07T16:50:23.719Z,14.60
2019-05-07T16:52:52.548Z,14.50
2019-05-07T16:55:22.472Z,14.20
2019-05-07T16:57:53.039Z,14.30
2019-05-07T17:00:25.871Z,14.20
2019-05-07T17:02:55.991Z,14.30
2019-05-07T17:05:24.447Z,14.50
2019-05-07T17:08:02.272Z,14.60
2019-05-07T17:10:31.843Z,14.70
2019-05-07T17:13:02.739Z,14.80
2019-05-07T17:15:30.938Z,14.80
2019-05-07T17:17:59.418Z,14.70
2019-05-07T17:20:28.090Z,14.70
2019-05-07T17:22:57.283Z,14.60
2019-05-07T17:25:37.832Z,14.50
2019-05-07T17:28:09.509Z,14.40
2019-05-07T17:30:38.584Z,14.40
2019-05-07T17:33:07.513Z,14.30
2019-05-07T17:35:36.061Z,14.10
2019-05-07T17:38:09.106Z,14.00
2019-05-07T17:40:35.365Z,13.90
2019-05-07T17:43:04.056Z,13.90
2019-05-07T17:45:33.039Z,13.90
2019-05-07T17:48:03.139Z,13.80
2019-05-07T17:50:34.616Z,13.80
2019-05-07T17:53:03.149Z,13.80
2019-05-07T17:55:33.138Z,13.80
2019-05-07T17:58:02.067Z,13.80
2019-05-07T18:00:32.726Z,13.70
2019-05-07T18:03:08.831Z,13.80
2019-05-07T18:05:37.307Z,13.70
2019-05-07T18:08:05.835Z,13.70
2019-05-07T18:10:34.315Z,13.70
2019-05-07T18:13:02.835Z,13.70
2019-05-07T18:15:32.245Z,13.60
2019-05-07T18:18:03.142Z,13.60
2019-05-07T18:20:32.754Z,13.60
2019-05-07T18:23:02.636Z,13.50
2019-05-07T18:25:32.420Z,13.50
2019-05-07T18:28:01.791Z,13.40
2019-05-07T18:30:32.731Z,13.30
2019-05-07T18:33:14.505Z,13.30
2019-05-07T18:35:47.951Z,13.20
2019-05-07T18:38:16.539Z,13.20
2019-05-07T18:40:45.024Z,13.10
2019-05-07T18:43:13.551Z,13.00
2019-05-07T18:45:42.476Z,12.90
2019-05-07T18:48:11.897Z,12.80
2019-05-07T18:50:41.962Z,12.80
2019-05-07T18:53:12.213Z,12.70
2019-05-07T18:55:42.336Z,12.60
2019-05-07T18:58:13.162Z,12.50
2019-05-07T19:00:54.583Z,12.50
2019-05-07T19:03:25.327Z,12.40
2019-05-07T19:05:54.020Z,12.30
2019-05-07T19:08:23.036Z,12.30
2019-05-07T19:10:52.163Z,12.20
2019-05-07T19:13:22.162Z,12.20
2019-05-07T19:15:53.013Z,12.10
2019-05-07T19:18:22.857Z,12.00
2019-05-07T19:20:53.002Z,12.00
2019-05-07T19:23:22.364Z,11.90
2019-05-07T19:25:52.237Z,11.90
2019-05-07T19:28:22.476Z,11.80
2019-05-07T19:30:52.814Z,11.80
2019-05-07T19:33:26.190Z,11.70
2019-05-07T19:35:52.800Z,11.60
2019-05-07T19:38:21.666Z,11.60
2019-05-07T19:40:52.663Z,11.50
2019-05-07T19:43:20.680Z,11.40
2019-05-07T19:45:49.229Z,11.30
2019-05-07T19:48:17.763Z,11.30
2019-05-07T19:50:46.247Z,11.20
2019-05-07T19:53:14.703Z,11.20
2019-05-07T19:56:01.999Z,11.10
2019-05-07T19:58:32.663Z,11.10
2019-05-07T20:01:02.379Z,11.00
2019-05-07T20:03:31.165Z,10.90
2019-05-07T20:06:02.254Z,10.90
2019-05-07T20:08:32.254Z,10.80
2019-05-07T20:11:18.191Z,10.70
2019-05-07T20:13:46.647Z,10.70
2019-05-07T20:16:19.680Z,10.60
2019-05-07T20:18:48.651Z,10.50
2019-05-07T20:21:17.135Z,10.50
2019-05-07T20:23:45.595Z,10.40
2019-05-07T20:26:14.079Z,10.30
2019-05-07T20:28:42.543Z,10.30
2019-05-07T20:31:12.220Z,10.20
2019-05-07T20:33:42.177Z,10.20
2019-05-07T20:36:11.076Z,10.10
2019-05-07T20:38:39.683Z,10.10
2019-05-07T20:41:08.242Z,10.00
2019-05-07T20:43:36.770Z,10.00
2019-05-07T20:46:05.329Z,10.00
2019-05-07T20:48:34.220Z,9.90
2019-05-07T20:51:02.680Z,9.80
2019-05-07T20:53:38.969Z,9.80
2019-05-07T20:56:07.502Z,9.70
2019-05-07T20:58:36.317Z,9.60
2019-05-07T21:01:04.980Z,9.70
2019-05-07T21:03:33.472Z,9.60
2019-05-07T21:06:02.382Z,9.50
2019-05-07T21:08:32.082Z,9.50
2019-05-07T21:11:02.595Z,9.50
2019-05-07T21:13:34.136Z,9.50
2019-05-07T21:16:03.255Z,9.40
2019-05-07T21:18:32.715Z,9.30
2019-05-07T21:21:02.164Z,9.30
2019-05-07T21:23:32.566Z,9.30
2019-05-07T21:26:02.111Z,9.30
2019-05-07T21:28:32.322Z,9.20
2019-05-07T21:31:02.791Z,9.20
2019-05-07T21:33:32.245Z,9.20
2019-05-07T21:36:02.889Z,9.20
2019-05-07T21:38:32.956Z,9.20
2019-05-07T21:41:01.292Z,9.10
2019-05-07T21:43:32.520Z,9.10
2019-05-07T21:46:02.427Z,9.10
2019-05-07T21:48:32.776Z,9.10
2019-05-07T21:51:02.481Z,9.00
2019-05-07T21:53:35.922Z,9.10
2019-05-07T21:56:12.431Z,9.10
2019-05-07T21:58:42.549Z,9.10
2019-05-07T22:01:15.507Z,9.10
2019-05-07T22:03:46.215Z,9.00
2019-05-07T22:06:14.811Z,9.00
2019-05-07T22:08:43.364Z,9.00
2019-05-07T22:11:12.452Z,9.00
2019-05-07T22:13:43.565Z,9.00
2019-05-07T22:16:13.055Z,8.90
2019-05-07T22:18:42.629Z,8.80
2019-05-07T22:21:12.422Z,8.80
2019-05-07T22:23:42.784Z,8.70
2019-05-07T22:26:20.245Z,8.70
2019-05-07T22:28:42.193Z,8.60
2019-05-07T22:31:12.774Z,8.60
2019-05-07T22:33:52.802Z,8.50
2019-05-07T22:36:22.110Z,8.50
2019-05-07T22:38:52.727Z,8.50
2019-05-07T22:41:22.352Z,8.50
2019-05-07T22:43:51.450Z,8.40
2019-05-07T22:46:22.102Z,8.30
2019-05-07T22:48:50.115Z,8.30
2019-05-07T22:51:18.566Z,8.30
2019-05-07T22:53:47.051Z,8.20
2019-05-07T22:56:15.508Z,8.20
2019-05-07T22:58:54.988Z,8.10
2019-05-07T23:01:23.512Z,8.10
2019-05-07T23:03:53.968Z,8.10
2019-05-07T23:06:23.171Z,8.00
2019-05-07T23:08:52.935Z,8.00
2019-05-07T23:11:22.915Z,8.00
2019-05-07T23:13:54.439Z,8.00
2019-05-07T23:16:23.115Z,7.90
2019-05-07T23:18:51.966Z,7.90
2019-05-07T23:21:24.274Z,7.90
2019-05-07T23:23:52.641Z,7.90
2019-05-07T23:26:23.137Z,7.80
2019-05-07T23:28:51.947Z,7.80
2019-05-07T23:31:22.759Z,7.80
2019-05-07T23:33:52.342Z,7.80
2019-05-07T23:36:22.507Z,7.70
2019-05-07T23:38:52.108Z,7.70
2019-05-07T23:41:25.055Z,7.70
2019-05-07T23:44:12.408Z,7.60
2019-05-07T23:46:42.594Z,7.70
2019-05-07T23:49:12.439Z,7.60
2019-05-07T23:51:42.092Z,7.60
2019-05-07T23:54:12.172Z,7.60
2019-05-07T23:56:42.817Z,7.60
2019-05-07T23:59:12.765Z,7.60
